createdAt,value
2022-10-18T00:26:07.254Z,6.90
2022-10-18T00:47:57.201Z,6.20
2022-10-18T01:09:48.425Z,7.50
2022-10-18T01:41:04.281Z,6.40
2022-10-18T02:02:53.886Z,5.20
2022-10-18T02:24:44.610Z,6.70
2022-10-18T02:46:30.463Z,7.20
2022-10-18T03:08:16.280Z,5.50
2022-10-18T03:30:02.158Z,7.20
2022-10-18T03:51:47.825Z,7.00
2022-10-18T04:13:33.606Z,6.20
2022-10-18T04:35:19.900Z,7.40
2022-10-18T04:57:06.080Z,6.10
2022-10-18T05:18:51.917Z,7.50
2022-10-18T05:40:39.336Z,6.90
2022-10-18T06:02:25.101Z,7.60
2022-10-18T06:24:11.378Z,9.20
2022-10-18T06:45:57.382Z,7.40
2022-10-18T07:07:43.227Z,10.20
2022-10-18T07:29:29.065Z,9.90
2022-10-18T07:51:15.304Z,9.00
2022-10-18T08:13:00.971Z,7.00
2022-10-18T08:34:46.745Z,6.00
2022-10-18T08:56:34.132Z,5.50
2022-10-18T09:18:47.532Z,5.00
2022-10-18T09:40:39.662Z,5.80
2022-10-18T10:02:26.062Z,5.40
2022-10-18T10:24:24.995Z,5.80
2022-10-18T10:46:16.187Z,7.20
2022-10-18T11:08:06.166Z,7.40
2022-10-18T11:30:05.300Z,7.40
2022-10-18T11:52:08.340Z,7.60
2022-10-18T12:13:59.022Z,7.30
2022-10-18T12:35:56.420Z,7.60
2022-10-18T12:58:06.075Z,7.40
2022-10-18T13:20:23.964Z,7.50
2022-10-18T13:42:34.209Z,7.70
2022-10-18T14:05:10.796Z,7.80
2022-10-18T14:27:19.307Z,11.40
2022-10-18T14:49:07.870Z,5.70
2022-10-18T15:10:54.884Z,3.40
2022-10-18T15:32:48.359Z,2.30
2022-10-18T15:54:34.083Z,2.20
2022-10-18T16:16:22.989Z,2.60
2022-10-18T16:38:14.861Z,4.30
2022-10-18T17:00:00.659Z,3.20
2022-10-18T17:21:46.552Z,4.70
2022-10-18T17:43:32.399Z,6.90
2022-10-18T18:05:18.162Z,5.40
2022-10-18T18:27:03.939Z,7.90
2022-10-18T18:48:51.398Z,6.40
2022-10-18T19:10:37.526Z,9.90
2022-10-18T19:32:23.329Z,8.80
2022-10-18T19:54:09.140Z,6.60
2022-10-18T20:26:06.497Z,7.10
2022-10-18T20:47:52.237Z,8.20
2022-10-18T21:09:37.966Z,9.80
2022-10-18T21:41:11.192Z,9.40
2022-10-18T22:03:10.283Z,7.90
2022-10-18T22:24:56.437Z,7.50
2022-10-18T22:46:45.572Z,8.10
2022-10-18T23:26:00.805Z,7.00
2022-10-18T23:47:46.536Z,8.00
